Aérodrome :
LOGIN :

S'inscrire | Disclaimer

   EN    FR    IT 

 










Légende :    VFR   VFR Marginal   IFR   IFR Intensif   IFR Très Intensif
Visi : 
Plafond : 
>= 8 km
>= 3000ft
5 à 8 km
1000 à 3000 ft
1500m à 5 km
500 à 1000 ft
800 à 1500m
200 à 500 ft
< 800m
< 200 ft
Symboles :   Orages  Brouillard  Fortes neiges  Fortes précipitations  Vent > 20 kt
SIGMETs :   Divers  Orages  Givrage  Turbulence  Onde Orograph.  Cendres Volcan.







- Altitude de l'aérodrome : 74 ft
- Code IATA : MRS
- Voir les cartes d'approche


LFML - Marseille / Marignane

DERNIER METAR :
  • 141030Z AUTO 30022KT CAVOK 28/15 Q1013 NOSIG

METARs EXPIRÉS :
  • 141000Z AUTO 32020G31KT 9999 FEW043 27/15 Q1013 BECMG 32025KT
  • 140930Z AUTO 30020KT CAVOK 27/16 Q1014 NOSIG
  • 140900Z AUTO 29022KT CAVOK 26/17 Q1014 NOSIG
  • 140830Z AUTO 30021KT CAVOK 25/16 Q1014 NOSIG
  • 140800Z AUTO 30022KT 9999 FEW011 25/16 Q1014 NOSIG

TAF TAF LFML
Valide du 14 à 09h jusqu'au 15 à 15h UTC


140800Z 1409/1515 32025KT CAVOK TX30/1415Z TN20/1503Z
TEMPO 1415/1420 32030G40KT
BECMG 1423/1503 VRB05KT
ATIS : +33 4 42 31 15 15
Pas de NOTAMs connus pour ce terrain.
1 SIGMET publié pour la FIR Marseille (LFMM) :
 
Orages noyés dans la masse
LFMM SIGMET 3 VALID 140930/141200 LFPW
LFMM MARSEILLE FIR/UIR EMBD TS OBS WI N4000 E00800 - N3900 E00800 - N3900 E00445 - N4015 E00530 - N4000 E00800 TOP FL400 STNR NC=



MET'MAP, la Météo Aéronautique d'un coup d'oeil ! - Copyright ORBIFLY Décembre 2007 - Disclaimer

ORBIFLY MET'MAP TEAM :

Programmation & Développement : Alexandra Zaïnal
Conception & Développement : Baudouin d'Aumeries
Co-Programmation & Développement : Marc-Olivier Méhu
Soutien technique & logistique : Manuel Goepfert

Contact : metmap@orbifly.com




SOURCES & CREDITS :

   NOAA